createdAt,value
2019-05-20T00:02:28.178Z,81.66
2019-05-20T00:04:59.028Z,81.85
2019-05-20T00:07:32.501Z,81.88
2019-05-20T00:10:09.330Z,81.96
2019-05-20T00:12:42.800Z,82.13
2019-05-20T00:15:16.454Z,82.37
2019-05-20T00:17:49.936Z,82.04
2019-05-20T00:20:23.436Z,82.15
2019-05-20T00:22:56.915Z,82.21
2019-05-20T00:25:30.493Z,82.32
2019-05-20T00:28:04.102Z,82.35
2019-05-20T00:30:37.681Z,82.65
2019-05-20T00:33:11.223Z,82.64
2019-05-20T00:35:44.733Z,82.81
2019-05-20T00:38:18.280Z,82.91
2019-05-20T00:40:51.926Z,83.16
2019-05-20T00:43:25.513Z,83.29
2019-05-20T00:45:59.027Z,82.89
2019-05-20T00:48:32.511Z,83.02
2019-05-20T00:51:06.099Z,82.89
2019-05-20T00:53:39.645Z,82.79
2019-05-20T00:56:13.244Z,82.78
2019-05-20T00:58:46.705Z,82.70
2019-05-20T01:01:20.271Z,82.51
2019-05-20T01:03:53.820Z,82.53
2019-05-20T01:06:27.401Z,82.51
2019-05-20T01:09:00.868Z,82.46
2019-05-20T01:11:34.515Z,82.49
2019-05-20T01:14:08.121Z,82.53
2019-05-20T01:16:41.625Z,82.49
2019-05-20T01:19:15.172Z,82.58
2019-05-20T01:21:48.736Z,82.44
2019-05-20T01:24:22.227Z,82.39
2019-05-20T01:26:55.805Z,82.45
2019-05-20T01:29:29.277Z,82.36
2019-05-20T01:32:02.799Z,82.31
2019-05-20T01:34:36.305Z,82.33
2019-05-20T01:37:09.899Z,82.28
2019-05-20T01:39:43.402Z,82.45
2019-05-20T01:42:16.986Z,82.37
2019-05-20T01:44:50.468Z,82.33
2019-05-20T01:47:23.971Z,82.15
2019-05-20T01:49:57.463Z,82.07
2019-05-20T01:52:30.979Z,82.19
2019-05-20T01:55:06.822Z,82.19
2019-05-20T01:57:40.331Z,82.28
2019-05-20T02:00:15.114Z,82.25
2019-05-20T02:02:48.718Z,82.28
2019-05-20T02:05:22.440Z,82.09
2019-05-20T02:07:55.959Z,82.03
2019-05-20T02:10:29.505Z,81.81
2019-05-20T02:13:03.062Z,81.87
2019-05-20T02:15:38.244Z,81.85
2019-05-20T02:18:11.891Z,81.77
2019-05-20T02:20:45.466Z,81.75
2019-05-20T02:23:18.963Z,81.59
2019-05-20T02:25:52.526Z,81.57
2019-05-20T02:28:26.126Z,81.73
2019-05-20T02:30:59.599Z,81.78
2019-05-20T02:33:49.825Z,81.60
2019-05-20T02:36:08.385Z,81.81
2019-05-20T02:38:41.954Z,81.98
2019-05-20T02:41:15.471Z,81.90
2019-05-20T02:43:49.057Z,81.81
2019-05-20T02:46:22.526Z,81.88
2019-05-20T02:48:56.114Z,81.98
2019-05-20T02:51:32.317Z,82.23
2019-05-20T02:54:05.884Z,82.26
2019-05-20T02:56:39.361Z,81.71
2019-05-20T02:59:13.035Z,81.81
2019-05-20T03:01:46.522Z,81.43
2019-05-20T03:04:20.139Z,81.38
2019-05-20T03:06:53.766Z,81.46
2019-05-20T03:09:27.279Z,81.65
2019-05-20T03:12:00.765Z,81.68
2019-05-20T03:14:34.331Z,81.63
2019-05-20T03:17:07.821Z,81.58
2019-05-20T03:19:41.325Z,81.54
2019-05-20T03:22:14.795Z,81.60
2019-05-20T03:24:48.318Z,81.55
2019-05-20T03:27:21.832Z,81.56
2019-05-20T03:29:55.497Z,81.30
2019-05-20T03:32:29.032Z,81.19
2019-05-20T03:35:02.808Z,81.30
2019-05-20T03:37:36.454Z,81.53
2019-05-20T03:40:10.391Z,81.70
2019-05-20T03:42:43.874Z,81.90
2019-05-20T03:45:17.609Z,81.92
2019-05-20T03:47:51.097Z,81.71
2019-05-20T03:50:24.693Z,81.73
2019-05-20T03:52:58.283Z,81.65
2019-05-20T03:55:31.850Z,81.58
2019-05-20T03:58:05.404Z,81.77
2019-05-20T04:00:46.907Z,81.82
2019-05-20T04:03:20.451Z,81.79
2019-05-20T04:05:54.034Z,81.74
2019-05-20T04:08:27.599Z,81.97
2019-05-20T04:11:01.173Z,81.89
2019-05-20T04:13:35.107Z,81.64
2019-05-20T04:16:08.795Z,81.64
2019-05-20T04:18:42.350Z,81.58
2019-05-20T04:21:15.929Z,81.54
2019-05-20T04:23:49.558Z,81.61
2019-05-20T04:26:23.127Z,81.54
2019-05-20T04:28:56.602Z,81.75
2019-05-20T04:31:30.128Z,81.89
2019-05-20T04:34:03.673Z,81.85
2019-05-20T04:36:37.254Z,81.89
2019-05-20T04:39:10.901Z,81.80
2019-05-20T04:41:44.451Z,81.65
2019-05-20T04:44:17.932Z,81.46
2019-05-20T04:46:51.795Z,81.26
2019-05-20T04:49:25.375Z,81.20
2019-05-20T04:52:00.466Z,81.22
2019-05-20T04:54:33.943Z,81.12
2019-05-20T04:57:07.545Z,80.93
2019-05-20T04:59:41.015Z,80.55
2019-05-20T05:02:14.601Z,80.69
2019-05-20T05:04:48.080Z,80.74
2019-05-20T05:07:21.720Z,80.49
2019-05-20T05:09:55.327Z,80.06
2019-05-20T05:12:29.526Z,80.01
2019-05-20T05:15:07.719Z,80.10
2019-05-20T05:17:38.710Z,79.82
2019-05-20T05:20:18.092Z,79.65
2019-05-20T05:22:48.016Z,79.32
2019-05-20T05:25:22.160Z,79.69
2019-05-20T05:27:55.799Z,79.58
2019-05-20T05:30:29.419Z,79.85
2019-05-20T05:33:02.983Z,79.96
2019-05-20T05:35:36.601Z,80.05
2019-05-20T05:38:10.146Z,80.13
2019-05-20T05:40:43.702Z,80.14
2019-05-20T05:43:17.290Z,79.79
2019-05-20T05:45:50.839Z,79.44
2019-05-20T05:48:24.410Z,79.19
2019-05-20T05:50:57.966Z,78.57
2019-05-20T05:53:31.603Z,78.23
2019-05-20T05:56:05.212Z,77.93
2019-05-20T05:58:38.786Z,77.69
2019-05-20T06:01:12.354Z,77.31
2019-05-20T06:03:45.935Z,77.70
2019-05-20T06:06:19.434Z,77.91
2019-05-20T06:08:54.651Z,76.84
2019-05-20T06:11:28.275Z,76.82
2019-05-20T06:14:01.784Z,76.40
2019-05-20T06:16:37.107Z,76.69
2019-05-20T06:19:10.843Z,76.75
2019-05-20T06:21:44.319Z,76.39
2019-05-20T06:24:17.891Z,75.92
2019-05-20T06:26:51.399Z,76.32
2019-05-20T06:29:24.938Z,75.76
2019-05-20T06:31:58.450Z,75.26
2019-05-20T06:34:32.159Z,74.77
2019-05-20T06:37:10.443Z,74.28
2019-05-20T06:39:44.028Z,74.81
2019-05-20T06:42:17.567Z,74.22
2019-05-20T06:44:53.937Z,73.47
2019-05-20T06:47:26.346Z,73.18
2019-05-20T06:49:59.849Z,73.23
2019-05-20T06:52:36.160Z,72.37
2019-05-20T06:55:09.457Z,72.20
2019-05-20T06:57:43.003Z,72.60
2019-05-20T07:00:37.369Z,72.02
2019-05-20T07:03:10.997Z,72.06
2019-05-20T07:05:44.492Z,71.59
2019-05-20T07:08:17.981Z,71.96
2019-05-20T07:10:51.550Z,72.02
2019-05-20T07:13:25.060Z,71.89
2019-05-20T07:15:58.570Z,71.79
2019-05-20T07:18:32.035Z,71.89
2019-05-20T07:21:05.721Z,71.31
2019-05-20T07:23:39.275Z,71.20
2019-05-20T07:26:12.844Z,70.39
2019-05-20T07:28:46.487Z,68.99
2019-05-20T07:31:20.150Z,68.68
2019-05-20T07:33:53.651Z,68.80
2019-05-20T07:36:27.303Z,67.71
2019-05-20T07:39:00.871Z,69.02
2019-05-20T07:41:34.405Z,69.38
2019-05-20T07:44:07.994Z,69.04
2019-05-20T07:46:42.547Z,68.58
2019-05-20T07:49:16.411Z,67.32
2019-05-20T07:51:50.673Z,66.58
2019-05-20T07:54:25.103Z,65.83
2019-05-20T07:57:01.360Z,65.08
2019-05-20T07:59:37.629Z,64.47
2019-05-20T08:02:11.263Z,63.83
2019-05-20T08:04:45.044Z,63.79
2019-05-20T08:07:29.902Z,63.38
2019-05-20T08:09:54.170Z,63.53
2019-05-20T08:12:27.842Z,63.62
2019-05-20T08:15:01.414Z,63.52
2019-05-20T08:17:35.092Z,63.55
2019-05-20T08:20:08.906Z,63.48
2019-05-20T08:22:43.060Z,63.84
2019-05-20T08:25:16.946Z,63.18
2019-05-20T08:27:50.588Z,63.44
2019-05-20T08:30:33.263Z,62.60
2019-05-20T08:33:07.140Z,62.54
2019-05-20T08:35:40.714Z,62.20
2019-05-20T08:38:14.369Z,61.49
2019-05-20T08:40:48.822Z,60.30
2019-05-20T08:43:22.579Z,59.68
2019-05-20T08:45:56.100Z,59.08
2019-05-20T08:48:29.775Z,60.01
2019-05-20T08:51:03.270Z,60.68
2019-05-20T08:53:36.846Z,61.91
2019-05-20T08:56:10.408Z,62.08
2019-05-20T08:58:43.923Z,61.75
2019-05-20T09:01:17.474Z,61.59
2019-05-20T09:03:51.116Z,60.39
2019-05-20T09:06:24.674Z,60.10
2019-05-20T09:08:58.250Z,60.79
2019-05-20T09:11:31.925Z,60.64
2019-05-20T09:14:05.609Z,60.32
2019-05-20T09:16:39.136Z,59.37
2019-05-20T09:19:12.731Z,60.14
2019-05-20T09:21:46.278Z,60.21
2019-05-20T09:24:19.958Z,60.65
2019-05-20T09:26:53.641Z,62.18
2019-05-20T09:29:27.148Z,62.66
2019-05-20T09:32:00.885Z,63.66
2019-05-20T09:34:34.431Z,64.31
2019-05-20T09:37:08.126Z,64.29
2019-05-20T09:39:41.803Z,64.60
2019-05-20T09:42:15.540Z,65.08
2019-05-20T09:44:49.115Z,64.71
2019-05-20T09:47:22.900Z,65.02
2019-05-20T09:49:56.478Z,65.24
2019-05-20T09:52:30.031Z,65.28
2019-05-20T09:55:05.287Z,64.79
2019-05-20T09:57:38.824Z,64.93
2019-05-20T10:00:12.784Z,65.06
2019-05-20T10:02:46.294Z,64.97
2019-05-20T10:05:19.948Z,65.23
2019-05-20T10:07:53.518Z,65.53
2019-05-20T10:10:27.103Z,64.75
2019-05-20T10:13:00.818Z,65.13
2019-05-20T10:15:34.365Z,64.47
2019-05-20T10:18:08.862Z,64.26
2019-05-20T10:20:42.509Z,63.72
2019-05-20T10:23:16.156Z,63.89
2019-05-20T10:25:49.721Z,63.39
2019-05-20T10:28:23.391Z,63.41
2019-05-20T10:30:57.071Z,63.69
2019-05-20T10:33:30.523Z,63.06
2019-05-20T10:36:04.378Z,63.24
2019-05-20T10:38:54.689Z,62.82
2019-05-20T10:41:13.168Z,62.81
2019-05-20T10:43:46.687Z,63.17
2019-05-20T10:46:20.281Z,63.04
2019-05-20T10:48:53.763Z,63.32
2019-05-20T10:51:27.277Z,63.61
2019-05-20T10:54:00.763Z,63.58
2019-05-20T10:56:34.325Z,63.45
2019-05-20T10:59:11.907Z,63.71
2019-05-20T11:01:43.230Z,63.38
2019-05-20T11:04:16.686Z,62.76
2019-05-20T11:06:50.330Z,61.09
2019-05-20T11:09:23.812Z,61.63
2019-05-20T11:11:57.383Z,61.49
2019-05-20T11:14:30.856Z,61.20
2019-05-20T11:17:04.445Z,61.87
2019-05-20T11:19:37.914Z,61.96
2019-05-20T11:22:11.579Z,61.92
2019-05-20T11:24:45.102Z,61.37
2019-05-20T11:27:18.590Z,60.64
2019-05-20T11:29:52.179Z,60.98
2019-05-20T11:32:32.021Z,61.21
2019-05-20T11:35:08.904Z,61.95
2019-05-20T11:37:42.410Z,61.34
2019-05-20T11:40:16.447Z,61.12
2019-05-20T11:42:50.058Z,61.30
2019-05-20T11:45:23.704Z,61.32
2019-05-20T11:47:57.182Z,61.05
2019-05-20T11:50:30.751Z,60.66
2019-05-20T11:53:04.507Z,61.03
2019-05-20T11:55:38.081Z,61.37
2019-05-20T11:58:15.918Z,60.72
2019-05-20T12:00:46.906Z,60.95
2019-05-20T12:03:20.470Z,60.59
2019-05-20T12:05:54.152Z,60.88
2019-05-20T12:08:27.748Z,61.00
2019-05-20T12:11:01.338Z,61.21
2019-05-20T12:13:34.879Z,61.37
2019-05-20T12:16:08.485Z,61.74
2019-05-20T12:18:45.089Z,61.98
2019-05-20T12:21:17.187Z,61.37
2019-05-20T12:23:50.712Z,61.42
2019-05-20T12:26:24.231Z,61.82
2019-05-20T12:28:57.721Z,61.67
2019-05-20T12:31:31.448Z,61.70
2019-05-20T12:34:04.996Z,60.97
2019-05-20T12:36:38.489Z,60.53
2019-05-20T12:39:12.017Z,61.35
2019-05-20T12:41:45.656Z,61.50
2019-05-20T12:44:19.229Z,61.49
2019-05-20T12:46:52.938Z,61.62
2019-05-20T12:49:26.486Z,61.79
2019-05-20T12:52:00.044Z,61.75
2019-05-20T12:54:33.563Z,61.71
2019-05-20T12:57:07.063Z,61.56
2019-05-20T12:59:40.623Z,61.65
2019-05-20T13:02:17.186Z,62.02
2019-05-20T13:04:49.560Z,61.83
2019-05-20T13:07:23.102Z,61.43
2019-05-20T13:09:56.646Z,61.41
2019-05-20T13:12:30.232Z,61.70
2019-05-20T13:15:07.929Z,62.09
2019-05-20T13:17:44.751Z,61.77
2019-05-20T13:20:16.956Z,61.55
2019-05-20T13:22:50.990Z,61.76
2019-05-20T13:25:24.464Z,61.76
2019-05-20T13:27:58.075Z,62.21
2019-05-20T13:30:31.726Z,62.16
2019-05-20T13:33:05.336Z,62.26
2019-05-20T13:35:38.940Z,62.27
2019-05-20T13:38:12.455Z,61.55
2019-05-20T13:40:47.357Z,60.97
2019-05-20T13:43:21.226Z,61.37
2019-05-20T13:45:54.831Z,61.56
2019-05-20T13:48:28.398Z,61.80
2019-05-20T13:51:02.029Z,61.77
2019-05-20T13:53:36.111Z,61.30
2019-05-20T13:56:12.676Z,60.71
2019-05-20T13:58:46.195Z,60.91
2019-05-20T14:01:19.803Z,60.63
2019-05-20T14:03:56.871Z,60.76
2019-05-20T14:06:28.588Z,60.94
2019-05-20T14:09:02.199Z,59.98
2019-05-20T14:11:35.674Z,59.79
2019-05-20T14:14:09.215Z,59.89
2019-05-20T14:16:42.691Z,59.69
2019-05-20T14:19:16.316Z,59.54
2019-05-20T14:21:49.938Z,58.81
2019-05-20T14:24:23.535Z,57.80
2019-05-20T14:26:57.091Z,56.78
2019-05-20T14:29:30.774Z,56.38
2019-05-20T14:32:04.388Z,56.56
2019-05-20T14:34:37.888Z,57.28
2019-05-20T14:37:11.436Z,57.68
2019-05-20T14:39:45.315Z,57.81
2019-05-20T14:42:19.083Z,58.50
2019-05-20T14:44:52.668Z,58.50
2019-05-20T14:47:26.209Z,57.79
2019-05-20T14:49:59.935Z,57.33
2019-05-20T14:52:33.410Z,56.82
2019-05-20T14:55:08.225Z,56.25
2019-05-20T14:57:41.764Z,56.61
2019-05-20T15:00:15.769Z,56.53
2019-05-20T15:02:49.248Z,56.32
2019-05-20T15:05:22.786Z,56.58
2019-05-20T15:07:56.250Z,56.62
2019-05-20T15:10:29.859Z,56.85
2019-05-20T15:13:03.434Z,57.14
2019-05-20T15:15:37.656Z,57.13
2019-05-20T15:18:11.267Z,56.76
2019-05-20T15:20:44.881Z,56.14
2019-05-20T15:23:18.398Z,56.47
2019-05-20T15:25:52.064Z,56.00
2019-05-20T15:28:25.690Z,55.61
2019-05-20T15:30:59.203Z,55.74
2019-05-20T15:33:32.761Z,55.97
2019-05-20T15:36:06.335Z,56.53
2019-05-20T15:38:39.878Z,56.81
2019-05-20T15:41:13.479Z,56.32
2019-05-20T15:43:47.010Z,56.29
2019-05-20T15:46:21.209Z,56.21
2019-05-20T15:48:55.109Z,56.09
2019-05-20T15:51:28.638Z,56.34
2019-05-20T15:54:02.338Z,56.47
2019-05-20T15:56:36.037Z,56.02
2019-05-20T15:59:09.600Z,56.50
2019-05-20T16:01:46.365Z,56.88
2019-05-20T16:04:19.941Z,57.07
2019-05-20T16:06:54.201Z,57.38
2019-05-20T16:09:27.831Z,57.58
2019-05-20T16:12:01.417Z,57.73
2019-05-20T16:14:34.889Z,58.25
2019-05-20T16:17:08.484Z,58.88
2019-05-20T16:19:41.996Z,58.94
2019-05-20T16:22:15.618Z,58.50
2019-05-20T16:24:49.210Z,58.02
2019-05-20T16:27:22.784Z,57.80
2019-05-20T16:30:05.981Z,57.37
2019-05-20T16:32:31.743Z,56.61
2019-05-20T16:35:06.763Z,56.36
2019-05-20T16:37:40.329Z,55.73
2019-05-20T16:40:14.237Z,55.18
2019-05-20T16:42:47.802Z,55.25
2019-05-20T16:45:21.408Z,55.04
2019-05-20T16:47:55.133Z,54.66
2019-05-20T16:50:28.742Z,55.19
2019-05-20T16:53:02.287Z,55.05
2019-05-20T16:55:35.819Z,54.81
2019-05-20T16:58:09.389Z,55.31
2019-05-20T17:00:43.744Z,55.40
2019-05-20T17:03:17.311Z,55.54
2019-05-20T17:05:50.848Z,55.83
2019-05-20T17:08:24.436Z,55.76
2019-05-20T17:10:57.979Z,56.15
2019-05-20T17:13:31.514Z,56.78
2019-05-20T17:16:05.115Z,57.49
2019-05-20T17:18:41.926Z,57.71
2019-05-20T17:21:15.473Z,58.19
2019-05-20T17:23:49.114Z,58.25
2019-05-20T17:26:22.710Z,58.21
2019-05-20T17:28:56.327Z,58.22
2019-05-20T17:31:30.960Z,58.11
2019-05-20T17:34:04.833Z,58.52
2019-05-20T17:36:38.378Z,58.96
2019-05-20T17:39:11.951Z,59.31
2019-05-20T17:41:47.164Z,59.70
2019-05-20T17:44:20.770Z,59.99
2019-05-20T17:46:54.390Z,59.98
2019-05-20T17:49:28.060Z,60.19
2019-05-20T17:52:01.896Z,60.70
2019-05-20T17:54:35.576Z,61.36
2019-05-20T17:57:09.187Z,61.39
2019-05-20T17:59:42.705Z,61.51
2019-05-20T18:02:16.191Z,61.75
2019-05-20T18:04:49.681Z,62.01
2019-05-20T18:07:23.226Z,62.61
2019-05-20T18:09:56.737Z,63.20
2019-05-20T18:12:30.313Z,63.64
2019-05-20T18:15:04.544Z,64.11
2019-05-20T18:17:38.108Z,64.44
2019-05-20T18:20:12.152Z,64.85
2019-05-20T18:22:45.706Z,65.70
2019-05-20T18:25:19.320Z,65.96
2019-05-20T18:27:52.880Z,66.25
2019-05-20T18:30:26.442Z,66.41
2019-05-20T18:33:00.005Z,66.61
2019-05-20T18:35:33.554Z,66.68
2019-05-20T18:38:07.087Z,67.25
2019-05-20T18:40:40.582Z,67.42
2019-05-20T18:43:14.141Z,67.91
2019-05-20T18:45:48.481Z,68.28
2019-05-20T18:48:22.038Z,68.42
2019-05-20T18:50:55.554Z,68.36
2019-05-20T18:53:29.035Z,68.85
2019-05-20T18:56:02.698Z,69.25
2019-05-20T18:58:36.331Z,69.79
2019-05-20T19:01:09.929Z,71.02
2019-05-20T19:03:43.493Z,70.82
2019-05-20T19:06:17.392Z,70.73
2019-05-20T19:08:50.916Z,70.82
2019-05-20T19:11:24.510Z,70.83
2019-05-20T19:13:58.049Z,71.09
2019-05-20T19:16:31.711Z,71.04
2019-05-20T19:19:05.322Z,71.27
2019-05-20T19:21:38.838Z,71.58
2019-05-20T19:24:12.453Z,71.58
2019-05-20T19:26:46.066Z,71.87
2019-05-20T19:29:19.640Z,71.81
2019-05-20T19:32:01.480Z,72.17
2019-05-20T19:34:28.423Z,72.12
2019-05-20T19:37:02.077Z,72.39
2019-05-20T19:39:35.577Z,72.44
2019-05-20T19:42:09.052Z,72.57
2019-05-20T19:44:42.740Z,72.75
2019-05-20T19:47:16.359Z,72.84
2019-05-20T19:49:49.858Z,72.78
2019-05-20T19:52:23.558Z,73.37
2019-05-20T19:54:57.127Z,73.33
2019-05-20T19:57:30.804Z,73.23
2019-05-20T20:00:08.997Z,73.57
2019-05-20T20:02:42.489Z,73.67
2019-05-20T20:05:16.160Z,73.57
2019-05-20T20:07:49.640Z,75.88
2019-05-20T20:10:23.272Z,77.18
2019-05-20T20:12:56.852Z,78.57
2019-05-20T20:15:30.431Z,80.20
2019-05-20T20:18:04.017Z,81.09
2019-05-20T20:20:37.784Z,81.48
2019-05-20T20:23:11.458Z,82.15
2019-05-20T20:25:44.993Z,82.47
2019-05-20T20:28:18.521Z,82.70
2019-05-20T20:30:52.061Z,82.84
2019-05-20T20:33:25.546Z,83.06
2019-05-20T20:35:59.220Z,83.20
2019-05-20T20:38:32.687Z,83.42
2019-05-20T20:41:06.270Z,83.13
2019-05-20T20:43:39.819Z,83.26
2019-05-20T20:46:13.412Z,83.33
2019-05-20T20:48:46.884Z,82.95
2019-05-20T20:51:20.468Z,83.10
2019-05-20T20:53:54.017Z,82.91
2019-05-20T20:56:27.522Z,83.06
2019-05-20T20:59:01.072Z,83.00
2019-05-20T21:01:34.589Z,82.79
2019-05-20T21:04:08.200Z,83.10
2019-05-20T21:06:41.861Z,83.01
2019-05-20T21:09:15.346Z,83.84
2019-05-20T21:11:48.922Z,84.83
2019-05-20T21:14:22.479Z,85.82
2019-05-20T21:16:56.026Z,86.86
2019-05-20T21:19:29.522Z,87.42
2019-05-20T21:22:03.269Z,87.79
2019-05-20T21:24:36.761Z,88.20
2019-05-20T21:27:10.350Z,88.39
2019-05-20T21:29:43.835Z,88.95
2019-05-20T21:32:17.414Z,89.41
2019-05-20T21:34:50.940Z,89.42
2019-05-20T21:37:24.419Z,89.64
2019-05-20T21:39:58.048Z,89.88
2019-05-20T21:42:31.640Z,90.30
2019-05-20T21:45:07.404Z,90.97
2019-05-20T21:47:44.479Z,91.44
2019-05-20T21:50:17.264Z,91.74
2019-05-20T21:52:50.915Z,91.99
2019-05-20T21:55:24.392Z,92.27
2019-05-20T21:57:57.944Z,92.46
2019-05-20T22:00:33.148Z,92.57
2019-05-20T22:03:06.862Z,92.71
2019-05-20T22:05:40.601Z,92.81
2019-05-20T22:08:14.099Z,92.90
2019-05-20T22:10:47.632Z,92.87
2019-05-20T22:13:21.133Z,92.86
2019-05-20T22:15:54.695Z,92.85
2019-05-20T22:18:29.173Z,92.95
2019-05-20T22:21:02.760Z,92.86
2019-05-20T22:23:40.345Z,92.97
2019-05-20T22:26:13.850Z,93.02
2019-05-20T22:28:47.464Z,93.15
2019-05-20T22:31:21.001Z,93.05
2019-05-20T22:33:54.600Z,93.18
2019-05-20T22:36:28.133Z,92.95
2019-05-20T22:39:01.747Z,93.03
2019-05-20T22:41:35.335Z,93.06
2019-05-20T22:44:08.913Z,93.16
2019-05-20T22:46:42.488Z,93.25
2019-05-20T22:49:16.085Z,93.34
2019-05-20T22:51:49.589Z,93.56
2019-05-20T22:54:23.155Z,93.41
2019-05-20T22:56:56.698Z,93.33
2019-05-20T22:59:30.197Z,93.32
2019-05-20T23:02:03.913Z,93.20
2019-05-20T23:04:37.491Z,93.06
2019-05-20T23:07:10.971Z,92.93
2019-05-20T23:09:44.520Z,93.14
2019-05-20T23:12:18.001Z,93.17
2019-05-20T23:14:51.591Z,93.19
2019-05-20T23:17:25.200Z,93.10
2019-05-20T23:19:58.810Z,93.17
2019-05-20T23:22:32.292Z,93.11
2019-05-20T23:25:06.145Z,93.35
2019-05-20T23:27:39.647Z,93.18
2019-05-20T23:30:13.603Z,93.21
2019-05-20T23:32:47.157Z,93.04
2019-05-20T23:35:20.677Z,93.21
2019-05-20T23:37:54.147Z,93.03
2019-05-20T23:40:27.661Z,92.86
2019-05-20T23:43:01.161Z,92.98
2019-05-20T23:45:34.667Z,93.06
2019-05-20T23:48:08.211Z,92.86
2019-05-20T23:50:41.716Z,92.91
2019-05-20T23:53:15.186Z,92.86
2019-05-20T23:55:48.736Z,92.48
2019-05-20T23:58:22.431Z,92.37
